ESMT/HAD METAR and TAF weather

Enter ICAO airport designator
Station Type Date Time Source
ESMT METAR 2019/12/13 22:20 UTC NOAA

ESMT 132220Z AUTO 12004KT 3400 -DZ FEW005/// BKN007/// OVC011/// 04/03 Q0984 REUP


Station Type Date Time Source
ESMT Decoded METAR 2019/12/13 22:20 UTC NOAA

Halmstad Swedish Air Force Base , Sweden (ESMT) 56-41N 012-50E
Dec 13, 2019 - 05:20 PM EST / 2019.12.13 2220 UTC
Wind: from the ESE (120 degrees) at 5 MPH (4 KT):0
Visibility: 2 mile(s):0
Sky conditions: overcast
Weather: light drizzle
Temperature: 39 F (4 C)
Dew Point: 37 F (3 C)
Relative Humidity: 93%
Pressure (altimeter): 29.06 in. Hg (0984 hPa)
ob: ESMT 132220Z AUTO 12004KT 3400 -DZ FEW005/// BKN007/// OVC011/// 04/03 Q0984 REUP
cycle: 22

Station Type Date Time Source
ESMT TAF 2017/04/24 06:33 UTC NOAA

TAF TAF ESMT 240513Z 2406/2506 22018KT 9999 BKN018
TEMPO 2406/2413 22018G30KT 4000 RADZ BKN008
TEMPO 2413/2415 24020G30KT 4000 SHRA BKN014 SCT020CB

Example: see airport list